Terminal Aerodrome Forecast
Issued by NWS

Home | Current Version | Previous Version | Text Only | Print | Product List | Glossary On
Versions: 1 2 3 4 5 6 7 8 9 10 11 12 13 14 15 16 17 18 19 20 21 22 23 24 25 26 27 28 29 30 31 32
000
FTUS43 KABR 180400 AAA
TAFPIR
TAF AMD
KPIR 180411Z 1804/1824 12011KT P6SM OVC005
     FM181700 15008KT P6SM BKN015 OVC070=

USA.gov is the U.S. government's official web portal to all federal, state and local government web resources and services.